createdAt,value
2018-06-09T05:15:12.499Z,32.05
2018-06-09T05:17:40.549Z,33.08
2018-06-09T05:20:08.594Z,34.98
2018-06-09T05:22:36.648Z,31.20
2018-06-09T05:25:04.873Z,27.67
2018-06-09T05:27:32.920Z,30.80
2018-06-09T05:30:00.977Z,31.40
2018-06-09T05:32:29.032Z,31.93
2018-06-09T05:34:57.072Z,31.82
2018-06-09T05:37:25.120Z,34.43
2018-06-09T05:39:53.175Z,30.52
2018-06-09T05:42:21.232Z,34.45
2018-06-09T05:44:49.268Z,29.65
2018-06-09T05:47:17.318Z,25.68
2018-06-09T05:49:45.378Z,28.75
2018-06-09T05:52:13.464Z,30.02
2018-06-09T05:54:41.512Z,30.23
2018-06-09T05:57:09.582Z,34.88
2018-06-09T05:59:37.632Z,27.22
2018-06-09T06:02:05.799Z,27.98
2018-06-09T06:04:33.832Z,31.87
2018-06-09T06:07:01.878Z,29.25
2018-06-09T06:09:29.934Z,24.67
2018-06-09T06:11:57.989Z,24.10
2018-06-09T06:14:26.037Z,29.15
2018-06-09T06:16:54.085Z,28.80
2018-06-09T06:19:22.133Z,28.47
2018-06-09T06:21:50.184Z,28.00
2018-06-09T06:24:18.235Z,27.98
2018-06-09T06:26:46.284Z,27.25
2018-06-09T06:29:14.324Z,33.53
2018-06-09T06:31:42.457Z,31.82
2018-06-09T06:34:10.509Z,33.88
2018-06-09T06:39:09.269Z,30.35
2018-06-09T06:41:37.333Z,32.67
2018-06-09T06:44:05.408Z,32.05
2018-06-09T06:46:33.475Z,26.97
2018-06-09T06:49:01.544Z,32.05
2018-06-09T06:51:29.608Z,35.70
2018-06-09T06:53:57.687Z,38.13
2018-06-09T06:56:25.754Z,34.15
2018-06-09T06:58:53.828Z,35.70
2018-06-09T07:01:21.889Z,37.83
2018-06-09T07:03:49.960Z,41.88
2018-06-09T07:06:18.076Z,49.05
2018-06-09T07:08:46.157Z,38.98
2018-06-09T07:11:14.216Z,39.33
2018-06-09T07:13:42.297Z,36.48
2018-06-09T07:16:10.348Z,42.93
2018-06-09T07:18:38.416Z,41.40
2018-06-09T07:21:06.493Z,33.67
2018-06-09T07:23:34.564Z,30.62
2018-06-09T07:26:02.641Z,27.73
2018-06-09T07:28:30.720Z,23.83
2018-06-09T07:30:58.801Z,26.27
2018-06-09T07:33:26.868Z,25.97
2018-06-09T07:35:54.941Z,28.05
2018-06-09T07:38:23.024Z,29.00
2018-06-09T07:40:51.081Z,25.95
2018-06-09T07:43:19.141Z,31.15
2018-06-09T07:45:47.206Z,30.68
2018-06-09T07:48:15.317Z,28.27
2018-06-09T07:50:43.377Z,32.28
2018-06-09T07:53:11.442Z,23.02
2018-06-09T07:55:39.554Z,26.68
2018-06-09T07:58:07.622Z,27.77
2018-06-09T08:00:35.680Z,28.32
2018-06-09T08:03:03.756Z,29.32
2018-06-09T08:05:31.813Z,26.12
2018-06-09T08:07:59.981Z,26.55
2018-06-09T08:10:28.061Z,22.15
2018-06-09T08:12:56.128Z,27.87
2018-06-09T08:15:24.066Z,24.75
2018-06-09T08:17:52.134Z,24.77
2018-06-09T08:20:20.188Z,22.58
2018-06-09T08:22:48.260Z,25.50
2018-06-09T08:25:16.329Z,22.22
2018-06-09T08:27:44.411Z,22.48
2018-06-09T08:30:12.465Z,27.02
2018-06-09T08:32:40.549Z,25.37
2018-06-09T08:35:08.610Z,26.95
2018-06-09T08:37:36.676Z,21.65
2018-06-09T08:40:04.604Z,19.82
2018-06-09T08:42:32.669Z,19.92
2018-06-09T08:45:00.744Z,20.10
2018-06-09T08:47:28.816Z,21.12
2018-06-09T08:49:56.892Z,16.80
2018-06-09T08:52:24.962Z,19.48
2018-06-09T08:54:53.033Z,17.55
2018-06-09T08:57:21.110Z,15.63
2018-06-09T08:59:49.201Z,18.75
2018-06-09T09:02:17.260Z,16.90
2018-06-09T09:04:45.345Z,22.77
2018-06-09T09:07:13.420Z,22.50
2018-06-09T09:09:41.508Z,19.87
2018-06-09T09:12:09.561Z,18.37
2018-06-09T09:14:37.636Z,17.32
2018-06-09T09:17:05.718Z,15.90
2018-06-09T09:19:33.784Z,21.07
2018-06-09T09:22:01.853Z,16.77
2018-06-09T09:24:29.933Z,19.05
2018-06-09T09:26:58.008Z,14.83
2018-06-09T09:29:26.089Z,16.35
2018-06-09T09:31:54.143Z,16.42
2018-06-09T09:34:22.214Z,15.98
2018-06-09T09:36:50.062Z,15.45
2018-06-09T09:39:18.127Z,15.40
2018-06-09T09:41:46.171Z,15.05
2018-06-09T09:44:14.231Z,16.87
2018-06-09T09:46:42.286Z,20.12
2018-06-09T09:49:10.361Z,15.85
2018-06-09T09:51:38.408Z,20.75
2018-06-09T09:54:06.260Z,18.55
2018-06-09T09:56:34.320Z,25.05
2018-06-09T09:59:02.369Z,22.40
2018-06-09T10:01:30.416Z,19.77
2018-06-09T10:03:58.473Z,17.32
2018-06-09T10:06:26.521Z,17.30
2018-06-09T10:08:54.616Z,14.98
2018-06-09T10:11:22.665Z,13.60
2018-06-09T10:13:50.708Z,14.15
2018-06-09T10:16:18.771Z,13.62
2018-06-09T10:18:46.831Z,15.90
2018-06-09T10:21:14.896Z,13.78
2018-06-09T10:23:42.953Z,13.00
2018-06-09T10:26:11.000Z,17.52
2018-06-09T10:28:39.061Z,15.68
2018-06-09T10:31:07.147Z,17.80
2018-06-09T10:33:35.225Z,16.03
2018-06-09T10:36:03.285Z,17.30
2018-06-09T10:38:31.365Z,16.53
2018-06-09T10:40:59.445Z,15.90
2018-06-09T10:43:27.529Z,14.83
2018-06-09T10:45:55.612Z,14.87
2018-06-09T10:48:23.683Z,15.45
2018-06-09T10:50:51.765Z,18.90
2018-06-09T10:53:19.836Z,14.98
2018-06-09T10:55:47.921Z,15.47
2018-06-09T10:58:15.976Z,13.93
2018-06-09T11:00:44.048Z,12.93
2018-06-09T11:03:12.121Z,13.00
2018-06-09T11:05:40.184Z,13.23
2018-06-09T11:08:08.265Z,19.63
2018-06-09T11:10:36.332Z,11.40
2018-06-09T11:13:04.564Z,11.90
2018-06-09T11:15:32.649Z,13.23
2018-06-09T11:18:00.717Z,15.03
2018-06-09T11:20:28.789Z,13.10
2018-06-09T11:22:56.857Z,13.00
2018-06-09T11:25:24.932Z,12.40
2018-06-09T11:27:52.998Z,13.60
2018-06-09T11:30:21.068Z,13.53
2018-06-09T11:32:48.995Z,13.83
2018-06-09T11:35:17.058Z,11.43
2018-06-09T11:37:45.108Z,12.00
2018-06-09T11:40:13.162Z,31.10
2018-06-09T11:42:41.208Z,25.30
2018-06-09T11:45:09.264Z,10.83
2018-06-09T11:47:37.291Z,11.40
2018-06-09T11:50:05.344Z,15.10
2018-06-09T11:52:33.381Z,9.60
2018-06-09T11:55:01.448Z,11.07
2018-06-09T11:57:29.480Z,10.83
2018-06-09T11:59:57.541Z,14.17
2018-06-09T12:02:25.579Z,11.00
2018-06-09T12:04:53.642Z,12.57
2018-06-09T12:07:21.691Z,12.37
2018-06-09T12:09:49.739Z,10.60
2018-06-09T12:12:17.789Z,10.50
2018-06-09T12:14:45.838Z,11.20
2018-06-09T12:17:13.909Z,13.80
2018-06-09T12:19:41.978Z,9.77
2018-06-09T12:22:09.999Z,10.90
2018-06-09T12:24:38.056Z,11.33
2018-06-09T12:27:06.103Z,30.60
2018-06-09T12:29:34.160Z,12.67
2018-06-09T12:32:02.204Z,9.87
2018-06-09T12:34:30.261Z,11.23
2018-06-09T12:36:58.292Z,11.97
2018-06-09T12:39:26.391Z,11.70
2018-06-09T12:41:54.400Z,10.70
2018-06-09T12:44:22.441Z,10.70
2018-06-09T12:46:50.488Z,10.07
2018-06-09T12:49:18.532Z,10.23
2018-06-09T12:51:46.581Z,11.50
2018-06-09T12:54:14.613Z,12.70
2018-06-09T12:56:42.662Z,10.10
2018-06-09T12:59:10.709Z,10.53
2018-06-09T13:01:38.762Z,9.53
2018-06-09T13:04:06.703Z,10.50
2018-06-09T13:06:34.748Z,9.87
2018-06-09T13:09:02.844Z,9.53
2018-06-09T13:11:30.888Z,10.93
2018-06-09T13:13:58.988Z,11.10
2018-06-09T13:16:27.004Z,12.10
2018-06-09T13:18:55.050Z,10.95
2018-06-09T13:21:23.116Z,12.88
2018-06-09T13:23:51.155Z,10.88
2018-06-09T13:26:19.225Z,12.73
2018-06-09T13:28:47.268Z,11.18
2018-06-09T13:31:15.338Z,11.55
2018-06-09T13:33:43.393Z,16.52
2018-06-09T13:36:11.529Z,12.70
2018-06-09T13:38:39.496Z,15.18
2018-06-09T13:41:07.560Z,17.55
2018-06-09T13:43:35.616Z,13.45
2018-06-09T13:46:03.664Z,15.58
2018-06-09T13:48:31.721Z,11.73
2018-06-09T13:50:59.780Z,11.70
2018-06-09T13:53:27.816Z,14.63
2018-06-09T13:55:55.877Z,11.70
2018-06-09T13:58:23.956Z,11.70
2018-06-09T14:00:52.025Z,13.80
2018-06-09T14:03:20.065Z,11.05
2018-06-09T14:05:48.117Z,10.30
2018-06-09T14:08:16.193Z,11.20
2018-06-09T14:10:44.257Z,11.63
2018-06-09T14:13:12.348Z,14.23
2018-06-09T14:15:40.385Z,12.18
2018-06-09T14:18:08.441Z,25.90
2018-06-09T14:20:36.497Z,35.20
2018-06-09T14:23:04.556Z,23.73
2018-06-09T14:25:32.620Z,31.00
2018-06-09T14:28:00.795Z,23.47
2018-06-09T14:30:28.847Z,24.05
2018-06-09T14:32:56.912Z,24.10
2018-06-09T14:35:24.983Z,25.08
2018-06-09T14:37:53.051Z,22.52
2018-06-09T14:40:21.104Z,21.60
2018-06-09T14:42:49.169Z,21.20
2018-06-09T14:45:17.242Z,29.82
2018-06-09T14:47:45.304Z,33.45
2018-06-09T14:50:13.373Z,40.60
2018-06-09T14:52:41.434Z,24.43
2018-06-09T14:55:09.493Z,23.55
2018-06-09T14:57:37.569Z,27.77
2018-06-09T15:00:05.706Z,25.68
2018-06-09T15:02:33.833Z,30.90
2018-06-09T15:05:01.858Z,39.30
2018-06-09T15:07:29.926Z,38.42
2018-06-09T15:09:57.984Z,41.88
2018-06-09T15:12:26.048Z,35.65
2018-06-09T15:14:54.105Z,46.63
2018-06-09T15:17:22.313Z,42.53
2018-06-09T15:19:50.398Z,33.25
2018-06-09T15:22:18.456Z,34.08
2018-06-09T15:24:46.508Z,36.50
2018-06-09T15:27:14.576Z,29.42
2018-06-09T15:29:42.656Z,33.42
2018-06-09T15:32:10.711Z,36.90
2018-06-09T15:34:38.763Z,42.55
2018-06-09T15:37:06.809Z,33.23
2018-06-09T15:39:34.855Z,33.35
2018-06-09T15:42:02.901Z,26.12
2018-06-09T15:44:30.937Z,25.77
2018-06-09T15:46:58.988Z,27.05
2018-06-09T15:49:27.032Z,18.77
2018-06-09T15:51:55.089Z,20.45
2018-06-09T15:54:23.140Z,19.73
2018-06-09T15:56:51.177Z,19.10
2018-06-09T15:59:19.225Z,24.55
2018-06-09T16:01:47.273Z,22.90
2018-06-09T16:04:15.312Z,21.85
2018-06-09T16:06:43.165Z,27.48
2018-06-09T16:09:11.339Z,27.25
2018-06-09T16:11:39.260Z,23.30
2018-06-09T16:14:07.308Z,18.52
2018-06-09T16:16:35.372Z,20.45
2018-06-09T16:19:03.417Z,22.98
2018-06-09T16:21:31.460Z,24.75
2018-06-09T16:23:59.550Z,22.82
2018-06-09T16:26:27.610Z,19.15
2018-06-09T16:28:55.651Z,21.48
2018-06-09T16:31:23.730Z,16.67
2018-06-09T16:33:51.793Z,17.67
2018-06-09T16:36:19.858Z,20.27
2018-06-09T16:38:47.930Z,15.70
2018-06-09T16:41:15.996Z,18.52
2018-06-09T16:43:44.056Z,14.10
2018-06-09T16:46:12.140Z,17.10
2018-06-09T16:48:40.009Z,12.78
2018-06-09T16:51:08.086Z,20.45
2018-06-09T16:53:36.149Z,16.27
2018-06-09T16:56:04.221Z,14.40
2018-06-09T16:58:32.322Z,16.48
2018-06-09T17:01:06.784Z,12.68
2018-06-09T17:03:34.824Z,15.70
2018-06-09T17:06:02.945Z,21.10
2018-06-09T17:08:31.020Z,29.75
2018-06-09T17:10:59.071Z,25.23
2018-06-09T17:13:27.144Z,29.02
2018-06-09T17:15:55.204Z,20.60
2018-06-09T17:18:23.285Z,22.05
2018-06-09T17:20:51.352Z,33.00
2018-06-09T17:23:19.420Z,20.70
2018-06-09T17:25:47.484Z,21.17
2018-06-09T17:28:15.551Z,20.75
2018-06-09T17:30:43.604Z,21.52
2018-06-09T17:33:11.689Z,23.22
2018-06-09T17:35:39.805Z,24.87
2018-06-09T17:38:07.884Z,28.15
2018-06-09T17:40:35.941Z,23.98
2018-06-09T17:43:04.020Z,22.62
2018-06-09T17:45:32.089Z,20.77
2018-06-09T17:48:00.160Z,20.12
2018-06-09T17:50:28.228Z,20.65
2018-06-09T17:55:30.885Z,23.65
2018-06-09T17:57:58.964Z,19.95
2018-06-09T18:00:27.088Z,23.70
2018-06-09T18:02:55.161Z,24.85
2018-06-09T18:05:23.228Z,20.97
2018-06-09T18:07:51.319Z,22.10
2018-06-09T18:10:19.399Z,22.05
2018-06-09T18:12:47.478Z,26.25
2018-06-09T18:15:15.536Z,22.90
2018-06-09T18:17:43.633Z,24.52
2018-06-09T18:20:11.725Z,23.75
2018-06-09T18:22:39.812Z,19.17
2018-06-09T18:25:07.847Z,20.95
2018-06-09T18:27:35.934Z,25.00
2018-06-09T18:30:04.492Z,22.27
2018-06-09T18:32:32.553Z,25.48
2018-06-09T18:35:00.596Z,26.68
2018-06-09T18:37:28.652Z,28.25
2018-06-09T18:39:56.713Z,25.75
2018-06-09T18:42:24.765Z,26.93
2018-06-09T18:44:52.800Z,28.38
2018-06-09T18:47:20.852Z,34.05
2018-06-09T18:49:48.899Z,34.55
2018-06-09T18:52:17.152Z,34.03
2018-06-09T18:54:45.236Z,31.23
2018-06-09T18:57:13.308Z,36.98
2018-06-09T18:59:41.352Z,31.05
2018-06-09T19:02:09.409Z,34.03
2018-06-09T19:04:37.457Z,29.75
2018-06-09T19:07:05.509Z,33.95
2018-06-09T19:09:33.563Z,35.45
2018-06-09T19:12:01.621Z,37.20
2018-06-09T19:14:29.664Z,40.55
2018-06-09T19:16:57.708Z,33.98
2018-06-09T19:19:25.762Z,35.23
2018-06-09T19:21:53.847Z,25.02
2018-06-09T19:24:21.852Z,24.20
2018-06-09T19:26:49.888Z,32.30
2018-06-09T19:29:17.938Z,19.35
2018-06-09T19:31:45.989Z,18.80
2018-06-09T19:34:14.038Z,22.00
2018-06-09T19:36:42.082Z,16.70
2018-06-09T19:39:10.122Z,20.65
2018-06-09T19:41:38.164Z,15.00
2018-06-09T19:44:06.213Z,12.95
2018-06-09T19:46:34.257Z,15.68
2018-06-09T19:49:02.310Z,15.18
2018-06-09T19:51:30.356Z,24.25
2018-06-09T19:53:58.409Z,14.50
2018-06-09T19:56:26.444Z,16.70
2018-06-09T19:58:54.501Z,16.62
2018-06-09T20:01:22.547Z,16.15
2018-06-09T20:03:50.589Z,16.50
2018-06-09T20:06:18.629Z,15.15
2018-06-09T20:08:46.673Z,16.23
2018-06-09T20:11:14.722Z,15.78
2018-06-09T20:13:42.767Z,15.95
2018-06-09T20:16:11.853Z,15.53
2018-06-09T20:18:39.905Z,13.10
2018-06-09T20:21:07.945Z,14.95
2018-06-09T20:23:35.993Z,25.68
2018-06-09T20:26:04.616Z,15.40
2018-06-09T20:28:33.164Z,17.00
2018-06-09T20:31:01.402Z,15.28
2018-06-09T20:33:29.445Z,18.60
2018-06-09T20:35:57.493Z,17.85
2018-06-09T20:38:25.540Z,19.20
2018-06-09T20:40:53.588Z,15.25
2018-06-09T20:43:21.628Z,14.70
2018-06-09T20:45:49.664Z,18.42
2018-06-09T20:48:17.716Z,19.32
2018-06-09T20:50:45.757Z,15.65
2018-06-09T20:53:13.812Z,16.90
2018-06-09T20:55:41.852Z,18.52
2018-06-09T20:58:09.915Z,21.50
2018-06-09T21:00:37.948Z,20.82
2018-06-09T21:03:06.001Z,25.85
2018-06-09T21:05:34.045Z,16.73
2018-06-09T21:08:02.096Z,19.32
2018-06-09T21:10:30.136Z,19.10
2018-06-09T21:12:58.181Z,20.70
2018-06-09T21:15:26.238Z,23.42
2018-06-09T21:17:54.260Z,18.15
2018-06-09T21:20:22.312Z,17.75
2018-06-09T21:22:50.359Z,21.52
2018-06-09T21:25:18.416Z,20.27
2018-06-09T21:27:52.000Z,17.27
2018-06-09T21:30:25.408Z,18.27
2018-06-09T21:32:58.876Z,19.73
2018-06-09T21:35:43.452Z,19.40
2018-06-09T21:38:17.791Z,21.60
2018-06-09T21:40:47.760Z,21.48
2018-06-09T21:43:21.607Z,19.60
2018-06-09T21:45:50.657Z,18.42
2018-06-09T21:48:19.647Z,21.80
2018-06-09T21:50:47.856Z,23.30
2018-06-09T21:53:15.922Z,26.77
2018-06-09T21:55:43.998Z,19.02
2018-06-09T21:58:12.058Z,16.37
2018-06-09T22:00:40.125Z,23.10
2018-06-09T22:03:08.185Z,15.93
2018-06-09T22:05:36.247Z,22.22
2018-06-09T22:08:04.313Z,20.60
2018-06-09T22:10:32.376Z,21.45
2018-06-09T22:13:00.443Z,18.87
2018-06-09T22:15:28.505Z,21.35
2018-06-09T22:17:56.579Z,23.38
2018-06-09T22:20:24.653Z,19.98
2018-06-09T22:22:52.716Z,22.32
2018-06-09T22:25:26.180Z,19.67
2018-06-09T22:27:54.244Z,22.67
2018-06-09T22:30:22.316Z,19.42
2018-06-09T22:32:50.394Z,25.40
2018-06-09T22:35:18.453Z,24.95
2018-06-09T22:37:46.514Z,28.35
2018-06-09T22:40:14.585Z,26.27
2018-06-09T22:42:42.641Z,24.75
2018-06-09T22:45:10.712Z,27.55
2018-06-09T22:47:38.773Z,21.90
2018-06-09T22:50:06.840Z,23.32
2018-06-09T22:52:34.902Z,29.92
2018-06-09T22:55:02.963Z,33.02
2018-06-09T22:57:31.032Z,23.50
2018-06-09T22:59:59.096Z,25.82
2018-06-09T23:02:26.952Z,21.73
2018-06-09T23:04:55.019Z,22.22
2018-06-09T23:07:23.081Z,29.60
2018-06-09T23:09:51.187Z,33.28
2018-06-09T23:12:19.241Z,22.60
2018-06-09T23:14:47.313Z,28.45
2018-06-09T23:17:15.365Z,29.87
2018-06-09T23:19:43.437Z,28.47
2018-06-09T23:22:11.492Z,22.05
2018-06-09T23:24:39.593Z,27.60
2018-06-09T23:27:07.657Z,36.48
2018-06-09T23:29:35.716Z,34.33
2018-06-09T23:32:03.909Z,35.75
2018-06-09T23:34:32.033Z,37.58
2018-06-09T23:37:00.078Z,36.80
2018-06-09T23:39:28.132Z,35.23
2018-06-09T23:41:55.988Z,36.17
2018-06-09T23:44:24.052Z,38.78
2018-06-09T23:46:52.108Z,28.30
2018-06-09T23:49:20.166Z,26.23
2018-06-09T23:51:48.233Z,37.55
2018-06-09T23:54:16.292Z,37.00
2018-06-09T23:56:44.356Z,35.68
2018-06-09T23:59:12.408Z,43.78
